sensor_id;sensor_type;location;lat;lon;timestamp;pressure;altitude;pressure_sealevel;temperature;humidity
44934;BME280;30667;43.614;1.442;2022-09-01T00:02:09;100018.66;;;23.85;100.00
44934;BME280;30667;43.614;1.442;2022-09-01T00:04:36;100024.63;;;23.87;100.00
44934;BME280;30667;43.614;1.442;2022-09-01T00:07:05;100027.69;;;23.82;100.00
44934;BME280;30667;43.614;1.442;2022-09-01T00:09:31;100018.53;;;23.78;100.00
44934;BME280;30667;43.614;1.442;2022-09-01T00:11:57;100022.06;;;23.79;100.00
44934;BME280;30667;43.614;1.442;2022-09-01T00:14:25;100016.59;;;23.59;100.00
44934;BME280;30667;43.614;1.442;2022-09-01T00:16:51;100017.47;;;23.63;100.00
44934;BME280;30667;43.614;1.442;2022-09-01T00:19:18;100016.22;;;23.61;100.00
44934;BME280;30667;43.614;1.442;2022-09-01T00:21:45;100019.09;;;23.45;100.00
44934;BME280;30667;43.614;1.442;2022-09-01T00:24:13;100020.97;;;23.40;100.00
44934;BME280;30667;43.614;1.442;2022-09-01T00:26:40;100017.84;;;23.42;100.00
44934;BME280;30667;43.614;1.442;2022-09-01T00:29:05;100024.91;;;23.39;100.00
44934;BME280;30667;43.614;1.442;2022-09-01T00:31:31;100019.88;;;23.45;100.00
44934;BME280;30667;43.614;1.442;2022-09-01T00:33:57;100019.72;;;23.57;100.00
44934;BME280;30667;43.614;1.442;2022-09-01T00:36:23;100011.00;;;23.55;100.00
44934;BME280;30667;43.614;1.442;2022-09-01T00:38:49;100014.28;;;23.42;100.00
44934;BME280;30667;43.614;1.442;2022-09-01T00:41:17;100018.00;;;23.30;100.00
44934;BME280;30667;43.614;1.442;2022-09-01T00:43:55;100015.41;;;23.17;100.00
44934;BME280;30667;43.614;1.442;2022-09-01T00:46:26;100015.97;;;23.07;100.00
44934;BME280;30667;43.614;1.442;2022-09-01T00:49:02;100015.63;;;23.28;100.00
44934;BME280;30667;43.614;1.442;2022-09-01T00:51:30;100025.78;;;23.24;100.00
44934;BME280;30667;43.614;1.442;2022-09-01T00:53:58;100018.13;;;23.37;100.00
44934;BME280;30667;43.614;1.442;2022-09-01T00:56:25;100023.91;;;23.28;100.00
44934;BME280;30667;43.614;1.442;2022-09-01T00:58:51;100022.09;;;23.36;100.00
44934;BME280;30667;43.614;1.442;2022-09-01T01:01:17;100014.53;;;23.33;100.00
44934;BME280;30667;43.614;1.442;2022-09-01T01:03:42;100015.38;;;23.37;100.00
44934;BME280;30667;43.614;1.442;2022-09-01T01:06:12;100022.28;;;23.27;100.00
44934;BME280;30667;43.614;1.442;2022-09-01T01:08:43;100021.72;;;23.18;100.00
44934;BME280;30667;43.614;1.442;2022-09-01T01:11:14;100025.91;;;23.12;100.00
44934;BME280;30667;43.614;1.442;2022-09-01T01:13:54;100027.09;;;23.11;100.00
44934;BME280;30667;43.614;1.442;2022-09-01T01:16:21;100031.44;;;23.12;100.00
44934;BME280;30667;43.614;1.442;2022-09-01T01:18:47;100032.94;;;22.90;100.00
44934;BME280;30667;43.614;1.442;2022-09-01T01:21:18;100022.72;;;22.74;100.00
44934;BME280;30667;43.614;1.442;2022-09-01T01:24:15;100017.28;;;22.78;100.00
44934;BME280;30667;43.614;1.442;2022-09-01T01:26:42;100016.44;;;22.93;100.00
44934;BME280;30667;43.614;1.442;2022-09-01T01:29:07;100019.97;;;23.10;100.00
44934;BME280;30667;43.614;1.442;2022-09-01T01:31:34;100017.31;;;22.97;100.00
44934;BME280;30667;43.614;1.442;2022-09-01T01:33:59;100015.56;;;22.89;100.00
44934;BME280;30667;43.614;1.442;2022-09-01T01:36:28;100009.97;;;22.85;100.00
44934;BME280;30667;43.614;1.442;2022-09-01T01:39:05;100007.78;;;22.75;100.00
44934;BME280;30667;43.614;1.442;2022-09-01T01:41:33;100000.78;;;22.62;100.00
44934;BME280;30667;43.614;1.442;2022-09-01T01:44:00;100006.56;;;22.57;100.00
44934;BME280;30667;43.614;1.442;2022-09-01T01:46:31;100011.09;;;22.65;100.00
44934;BME280;30667;43.614;1.442;2022-09-01T01:48:57;100014.75;;;22.69;100.00
44934;BME280;30667;43.614;1.442;2022-09-01T01:51:26;100007.53;;;22.64;100.00
44934;BME280;30667;43.614;1.442;2022-09-01T01:53:53;100018.41;;;22.57;100.00
44934;BME280;30667;43.614;1.442;2022-09-01T01:56:21;100015.38;;;22.46;100.00
44934;BME280;30667;43.614;1.442;2022-09-01T01:58:51;100022.16;;;22.49;100.00
44934;BME280;30667;43.614;1.442;2022-09-01T02:01:22;100013.59;;;22.54;100.00
44934;BME280;30667;43.614;1.442;2022-09-01T02:03:50;100018.28;;;22.70;100.00
44934;BME280;30667;43.614;1.442;2022-09-01T02:06:20;100022.13;;;22.65;100.00
44934;BME280;30667;43.614;1.442;2022-09-01T02:08:48;100019.44;;;22.68;100.00
44934;BME280;30667;43.614;1.442;2022-09-01T02:11:14;100022.94;;;22.49;100.00
44934;BME280;30667;43.614;1.442;2022-09-01T02:13:41;100025.25;;;22.47;100.00
44934;BME280;30667;43.614;1.442;2022-09-01T02:16:07;100027.22;;;22.47;100.00
44934;BME280;30667;43.614;1.442;2022-09-01T02:18:39;100020.75;;;22.39;100.00
44934;BME280;30667;43.614;1.442;2022-09-01T02:21:07;100015.22;;;22.39;100.00
44934;BME280;30667;43.614;1.442;2022-09-01T02:23:36;100032.13;;;22.38;100.00
44934;BME280;30667;43.614;1.442;2022-09-01T02:26:03;100024.75;;;22.42;100.00
44934;BME280;30667;43.614;1.442;2022-09-01T02:28:32;100023.66;;;22.46;100.00
44934;BME280;30667;43.614;1.442;2022-09-01T02:30:59;100023.56;;;22.43;100.00
44934;BME280;30667;43.614;1.442;2022-09-01T02:33:27;100025.13;;;22.40;100.00
44934;BME280;30667;43.614;1.442;2022-09-01T02:35:58;100036.50;;;22.39;100.00
44934;BME280;30667;43.614;1.442;2022-09-01T02:38:24;100026.53;;;22.34;100.00
44934;BME280;30667;43.614;1.442;2022-09-01T02:40:52;100031.94;;;22.30;100.00
44934;BME280;30667;43.614;1.442;2022-09-01T02:43:19;100038.06;;;22.40;100.00
44934;BME280;30667;43.614;1.442;2022-09-01T02:45:48;100032.38;;;22.48;100.00
44934;BME280;30667;43.614;1.442;2022-09-01T02:48:20;100030.97;;;22.55;100.00
44934;BME280;30667;43.614;1.442;2022-09-01T02:50:49;100030.78;;;22.47;100.00
44934;BME280;30667;43.614;1.442;2022-09-01T02:53:14;100026.53;;;22.34;100.00
44934;BME280;30667;43.614;1.442;2022-09-01T02:55:43;100021.16;;;22.25;100.00
44934;BME280;30667;43.614;1.442;2022-09-01T02:58:09;100026.19;;;22.36;100.00
44934;BME280;30667;43.614;1.442;2022-09-01T03:00:37;100018.78;;;22.40;100.00
44934;BME280;30667;43.614;1.442;2022-09-01T03:03:05;100020.72;;;22.55;100.00
44934;BME280;30667;43.614;1.442;2022-09-01T03:05:32;100029.28;;;22.34;100.00
44934;BME280;30667;43.614;1.442;2022-09-01T03:08:01;100026.06;;;22.32;100.00
44934;BME280;30667;43.614;1.442;2022-09-01T03:10:36;100024.50;;;22.31;100.00
44934;BME280;30667;43.614;1.442;2022-09-01T03:13:04;100027.25;;;22.31;100.00
44934;BME280;30667;43.614;1.442;2022-09-01T03:15:31;100030.16;;;22.38;100.00
44934;BME280;30667;43.614;1.442;2022-09-01T03:17:59;100028.13;;;22.35;100.00
44934;BME280;30667;43.614;1.442;2022-09-01T03:20:26;100029.53;;;22.29;100.00
44934;BME280;30667;43.614;1.442;2022-09-01T03:22:53;100033.81;;;22.26;100.00
44934;BME280;30667;43.614;1.442;2022-09-01T03:25:20;100033.91;;;22.30;100.00
44934;BME280;30667;43.614;1.442;2022-09-01T03:27:45;100034.59;;;22.27;100.00
44934;BME280;30667;43.614;1.442;2022-09-01T03:30:12;100035.16;;;22.33;100.00
44934;BME280;30667;43.614;1.442;2022-09-01T03:32:37;100039.06;;;22.31;100.00
44934;BME280;30667;43.614;1.442;2022-09-01T03:35:03;100032.91;;;22.22;100.00
44934;BME280;30667;43.614;1.442;2022-09-01T03:37:28;100027.31;;;22.35;100.00
44934;BME280;30667;43.614;1.442;2022-09-01T03:39:54;100027.03;;;22.24;100.00
44934;BME280;30667;43.614;1.442;2022-09-01T03:42:19;100023.28;;;22.16;100.00
44934;BME280;30667;43.614;1.442;2022-09-01T03:44:46;100024.13;;;22.17;100.00
44934;BME280;30667;43.614;1.442;2022-09-01T03:47:13;100019.66;;;22.12;100.00
44934;BME280;30667;43.614;1.442;2022-09-01T03:49:39;100020.47;;;22.12;100.00
44934;BME280;30667;43.614;1.442;2022-09-01T03:52:10;100015.56;;;22.22;100.00
44934;BME280;30667;43.614;1.442;2022-09-01T03:54:36;100018.75;;;22.24;100.00
44934;BME280;30667;43.614;1.442;2022-09-01T03:57:02;100014.44;;;22.23;100.00
44934;BME280;30667;43.614;1.442;2022-09-01T03:59:31;100014.94;;;22.12;100.00
44934;BME280;30667;43.614;1.442;2022-09-01T04:01:57;100015.94;;;22.04;100.00
44934;BME280;30667;43.614;1.442;2022-09-01T04:04:24;100008.09;;;22.22;100.00
44934;BME280;30667;43.614;1.442;2022-09-01T04:06:50;100007.59;;;22.33;100.00
44934;BME280;30667;43.614;1.442;2022-09-01T04:09:15;100007.38;;;22.25;100.00
44934;BME280;30667;43.614;1.442;2022-09-01T04:11:40;100002.94;;;22.37;100.00
44934;BME280;30667;43.614;1.442;2022-09-01T04:14:08;99993.97;;;22.40;100.00
44934;BME280;30667;43.614;1.442;2022-09-01T04:16:34;100002.88;;;22.33;100.00
44934;BME280;30667;43.614;1.442;2022-09-01T04:19:21;100000.84;;;22.30;100.00
44934;BME280;30667;43.614;1.442;2022-09-01T04:21:57;99997.00;;;22.19;100.00
44934;BME280;30667;43.614;1.442;2022-09-01T04:24:25;99999.41;;;22.20;100.00
44934;BME280;30667;43.614;1.442;2022-09-01T04:26:53;99997.88;;;22.23;100.00
44934;BME280;30667;43.614;1.442;2022-09-01T04:29:21;99995.84;;;22.20;100.00
44934;BME280;30667;43.614;1.442;2022-09-01T04:31:57;100000.47;;;22.16;100.00
44934;BME280;30667;43.614;1.442;2022-09-01T04:34:26;99995.75;;;22.16;100.00
44934;BME280;30667;43.614;1.442;2022-09-01T04:36:52;99989.28;;;22.08;100.00
44934;BME280;30667;43.614;1.442;2022-09-01T04:39:19;99991.75;;;22.13;100.00
44934;BME280;30667;43.614;1.442;2022-09-01T04:41:44;99986.16;;;22.10;100.00
44934;BME280;30667;43.614;1.442;2022-09-01T04:44:12;99986.59;;;22.12;100.00
44934;BME280;30667;43.614;1.442;2022-09-01T04:46:40;99987.75;;;22.11;100.00
44934;BME280;30667;43.614;1.442;2022-09-01T04:49:08;99990.16;;;22.12;100.00
44934;BME280;30667;43.614;1.442;2022-09-01T04:51:43;99985.09;;;21.99;100.00
44934;BME280;30667;43.614;1.442;2022-09-01T04:54:10;99981.19;;;21.84;100.00
44934;BME280;30667;43.614;1.442;2022-09-01T04:56:39;99983.06;;;21.80;100.00
44934;BME280;30667;43.614;1.442;2022-09-01T04:59:06;99981.25;;;21.87;100.00
44934;BME280;30667;43.614;1.442;2022-09-01T05:01:33;99978.84;;;21.86;100.00
44934;BME280;30667;43.614;1.442;2022-09-01T05:04:12;99974.88;;;21.83;100.00
44934;BME280;30667;43.614;1.442;2022-09-01T05:06:41;99982.06;;;21.88;100.00
44934;BME280;30667;43.614;1.442;2022-09-01T05:09:08;99981.25;;;21.87;100.00
44934;BME280;30667;43.614;1.442;2022-09-01T05:11:35;99978.06;;;21.85;100.00
44934;BME280;30667;43.614;1.442;2022-09-01T05:14:02;99978.06;;;21.85;100.00
44934;BME280;30667;43.614;1.442;2022-09-01T05:16:28;99980.31;;;21.95;100.00
44934;BME280;30667;43.614;1.442;2022-09-01T05:18:54;99980.47;;;21.87;100.00
44934;BME280;30667;43.614;1.442;2022-09-01T05:21:21;99981.38;;;21.91;100.00
44934;BME280;30667;43.614;1.442;2022-09-01T05:23:51;99977.28;;;22.01;100.00
44934;BME280;30667;43.614;1.442;2022-09-01T05:26:21;99978.34;;;21.96;100.00
44934;BME280;30667;43.614;1.442;2022-09-01T05:28:50;99984.38;;;21.86;100.00
44934;BME280;30667;43.614;1.442;2022-09-01T05:31:18;99980.13;;;21.88;100.00
44934;BME280;30667;43.614;1.442;2022-09-01T05:33:44;99988.47;;;21.92;100.00
44934;BME280;30667;43.614;1.442;2022-09-01T05:36:14;99985.63;;;21.88;100.00
44934;BME280;30667;43.614;1.442;2022-09-01T05:38:40;99980.03;;;22.01;100.00
44934;BME280;30667;43.614;1.442;2022-09-01T05:41:08;99987.03;;;21.98;100.00
44934;BME280;30667;43.614;1.442;2022-09-01T05:43:35;99986.06;;;21.90;100.00
44934;BME280;30667;43.614;1.442;2022-09-01T05:46:06;99981.09;;;21.80;100.00
44934;BME280;30667;43.614;1.442;2022-09-01T05:48:33;99994.31;;;21.90;100.00
44934;BME280;30667;43.614;1.442;2022-09-01T05:51:09;99989.44;;;22.16;100.00
44934;BME280;30667;43.614;1.442;2022-09-01T05:53:42;99990.34;;;22.20;100.00
44934;BME280;30667;43.614;1.442;2022-09-01T05:56:09;99993.81;;;22.17;100.00
44934;BME280;30667;43.614;1.442;2022-09-01T05:58:40;99993.53;;;22.06;100.00
44934;BME280;30667;43.614;1.442;2022-09-01T06:01:06;99991.06;;;22.01;100.00
44934;BME280;30667;43.614;1.442;2022-09-01T06:03:32;99991.84;;;22.01;100.00
44934;BME280;30667;43.614;1.442;2022-09-01T06:06:03;99988.00;;;21.74;100.00
44934;BME280;30667;43.614;1.442;2022-09-01T06:08:33;99984.19;;;21.63;100.00
44934;BME280;30667;43.614;1.442;2022-09-01T06:11:00;99982.56;;;21.62;100.00
44934;BME280;30667;43.614;1.442;2022-09-01T06:13:28;99984.91;;;21.75;100.00
44934;BME280;30667;43.614;1.442;2022-09-01T06:15:54;99990.31;;;21.56;100.00
44934;BME280;30667;43.614;1.442;2022-09-01T06:18:24;100000.97;;;21.57;100.00
44934;BME280;30667;43.614;1.442;2022-09-01T06:20:51;99999.09;;;21.62;100.00
44934;BME280;30667;43.614;1.442;2022-09-01T06:23:17;99996.28;;;21.74;100.00
44934;BME280;30667;43.614;1.442;2022-09-01T06:25:46;99994.66;;;21.73;100.00
44934;BME280;30667;43.614;1.442;2022-09-01T06:28:16;99998.94;;;21.70;100.00
44934;BME280;30667;43.614;1.442;2022-09-01T06:30:45;99990.22;;;21.68;100.00
44934;BME280;30667;43.614;1.442;2022-09-01T06:33:13;99994.31;;;21.74;100.00
44934;BME280;30667;43.614;1.442;2022-09-01T06:35:43;99993.22;;;21.63;100.00
44934;BME280;30667;43.614;1.442;2022-09-01T06:38:12;99981.97;;;22.00;100.00
44934;BME280;30667;43.614;1.442;2022-09-01T06:40:38;99989.38;;;21.96;100.00
44934;BME280;30667;43.614;1.442;2022-09-01T06:43:06;99994.31;;;21.90;100.00
44934;BME280;30667;43.614;1.442;2022-09-01T06:45:40;99988.03;;;22.06;100.00
44934;BME280;30667;43.614;1.442;2022-09-01T06:48:06;99990.44;;;22.07;100.00
44934;BME280;30667;43.614;1.442;2022-09-01T06:50:32;99998.25;;;21.89;100.00
44934;BME280;30667;43.614;1.442;2022-09-01T06:52:58;99993.88;;;21.88;100.00
44934;BME280;30667;43.614;1.442;2022-09-01T06:55:33;99998.97;;;21.86;100.00
44934;BME280;30667;43.614;1.442;2022-09-01T06:58:05;99994.78;;;21.92;100.00
44934;BME280;30667;43.614;1.442;2022-09-01T07:00:32;99989.72;;;22.10;100.00
44934;BME280;30667;43.614;1.442;2022-09-01T07:03:02;99989.00;;;22.13;100.00
44934;BME280;30667;43.614;1.442;2022-09-01T07:05:37;99990.78;;;22.06;100.00
44934;BME280;30667;43.614;1.442;2022-09-01T07:08:03;100001.59;;;22.14;100.00
44934;BME280;30667;43.614;1.442;2022-09-01T07:10:32;99994.16;;;21.99;100.00
44934;BME280;30667;43.614;1.442;2022-09-01T07:12:57;99999.41;;;21.88;100.00
44934;BME280;30667;43.614;1.442;2022-09-01T07:15:26;99995.94;;;21.91;100.00
44934;BME280;30667;43.614;1.442;2022-09-01T07:17:55;99988.03;;;22.06;100.00
44934;BME280;30667;43.614;1.442;2022-09-01T07:20:25;99973.28;;;21.98;100.00
44934;BME280;30667;43.614;1.442;2022-09-01T07:22:53;99982.78;;;22.17;100.00
44934;BME280;30667;43.614;1.442;2022-09-01T07:25:18;99979.59;;;21.99;100.00
44934;BME280;30667;43.614;1.442;2022-09-01T07:27:45;99977.72;;;22.03;100.00
44934;BME280;30667;43.614;1.442;2022-09-01T07:30:19;99986.34;;;22.01;100.00
44934;BME280;30667;43.614;1.442;2022-09-01T07:32:44;99987.38;;;22.28;100.00
44934;BME280;30667;43.614;1.442;2022-09-01T07:35:16;99982.50;;;22.22;100.00
44934;BME280;30667;43.614;1.442;2022-09-01T07:37:46;99985.63;;;22.36;100.00
44934;BME280;30667;43.614;1.442;2022-09-01T07:40:15;99984.91;;;22.23;100.00
44934;BME280;30667;43.614;1.442;2022-09-01T07:42:43;99980.53;;;22.22;100.00
44934;BME280;30667;43.614;1.442;2022-09-01T07:45:11;99988.44;;;22.24;100.00
44934;BME280;30667;43.614;1.442;2022-09-01T07:47:37;99983.59;;;22.33;100.00
44934;BME280;30667;43.614;1.442;2022-09-01T07:50:08;99983.16;;;22.31;100.00
44934;BME280;30667;43.614;1.442;2022-09-01T07:52:36;99987.38;;;22.28;100.00
44934;BME280;30667;43.614;1.442;2022-09-01T07:55:10;99988.81;;;22.38;100.00
44934;BME280;30667;43.614;1.442;2022-09-01T07:57:37;99991.75;;;22.45;100.00
44934;BME280;30667;43.614;1.442;2022-09-01T08:00:09;99991.81;;;22.49;100.00
44934;BME280;30667;43.614;1.442;2022-09-01T08:02:38;99993.63;;;22.41;100.00
44934;BME280;30667;43.614;1.442;2022-09-01T08:05:11;99995.13;;;22.55;100.00
44934;BME280;30667;43.614;1.442;2022-09-01T08:07:38;99999.75;;;22.35;100.00
44934;BME280;30667;43.614;1.442;2022-09-01T08:10:05;99990.00;;;22.37;100.00
44934;BME280;30667;43.614;1.442;2022-09-01T08:12:32;99998.50;;;22.32;100.00
44934;BME280;30667;43.614;1.442;2022-09-01T08:14:58;99997.19;;;22.26;100.00
44934;BME280;30667;43.614;1.442;2022-09-01T08:17:25;99990.44;;;22.39;100.00
44934;BME280;30667;43.614;1.442;2022-09-01T08:19:50;99983.16;;;22.66;100.00
44934;BME280;30667;43.614;1.442;2022-09-01T08:22:17;99982.25;;;22.62;100.00
44934;BME280;30667;43.614;1.442;2022-09-01T08:24:47;99985.06;;;22.46;100.00
44934;BME280;30667;43.614;1.442;2022-09-01T08:27:12;99985.41;;;22.61;100.00
44934;BME280;30667;43.614;1.442;2022-09-01T08:29:38;99976.75;;;22.62;100.00
44934;BME280;30667;43.614;1.442;2022-09-01T08:32:03;99975.34;;;22.53;100.00
44934;BME280;30667;43.614;1.442;2022-09-01T08:34:31;99974.66;;;22.40;100.00
44934;BME280;30667;43.614;1.442;2022-09-01T08:36:57;99971.88;;;22.56;100.00
44934;BME280;30667;43.614;1.442;2022-09-01T08:39:23;99973.78;;;22.52;100.00
44934;BME280;30667;43.614;1.442;2022-09-01T08:42:19;99979.97;;;22.64;100.00
44934;BME280;30667;43.614;1.442;2022-09-01T08:44:56;99980.78;;;22.84;100.00
44934;BME280;30667;43.614;1.442;2022-09-01T08:47:23;99989.81;;;23.01;100.00
44934;BME280;30667;43.614;1.442;2022-09-01T08:49:49;99988.19;;;23.00;100.00
44934;BME280;30667;43.614;1.442;2022-09-01T08:52:23;99985.44;;;22.80;100.00
44934;BME280;30667;43.614;1.442;2022-09-01T08:55:01;99985.56;;;22.68;100.00
44934;BME280;30667;43.614;1.442;2022-09-01T08:57:33;99993.03;;;22.67;100.00
44934;BME280;30667;43.614;1.442;2022-09-01T08:59:59;99984.03;;;22.71;100.00
44934;BME280;30667;43.614;1.442;2022-09-01T09:02:44;99993.22;;;22.59;100.00
44934;BME280;30667;43.614;1.442;2022-09-01T09:16:20;99985.84;;;22.82;100.00
44934;BME280;30667;43.614;1.442;2022-09-01T09:18:50;99977.94;;;22.81;100.00
44934;BME280;30667;43.614;1.442;2022-09-01T09:21:38;99977.78;;;23.09;100.00
44934;BME280;30667;43.614;1.442;2022-09-01T09:24:27;99977.69;;;23.06;100.00
44934;BME280;30667;43.614;1.442;2022-09-01T09:26:57;99986.66;;;23.18;100.00
44934;BME280;30667;43.614;1.442;2022-09-01T09:29:24;99988.88;;;23.32;100.00
44934;BME280;30667;43.614;1.442;2022-09-01T09:32:05;99976.06;;;23.44;100.00
44934;BME280;30667;43.614;1.442;2022-09-01T09:34:39;99977.91;;;23.36;100.00
44934;BME280;30667;43.614;1.442;2022-09-01T09:42:33;99968.44;;;23.37;100.00
44934;BME280;30667;43.614;1.442;2022-09-01T09:44:59;99960.78;;;23.50;100.00
44934;BME280;30667;43.614;1.442;2022-09-01T09:47:42;99961.31;;;23.55;100.00
44934;BME280;30667;43.614;1.442;2022-09-01T09:50:13;99965.59;;;23.53;100.00
44934;BME280;30667;43.614;1.442;2022-09-01T09:52:41;99959.63;;;23.51;100.00
44934;BME280;30667;43.614;1.442;2022-09-01T09:57:47;99958.16;;;23.57;100.00
44934;BME280;30667;43.614;1.442;2022-09-01T10:00:31;99968.84;;;23.58;99.23
44934;BME280;30667;43.614;1.442;2022-09-01T10:03:04;99962.16;;;23.60;100.00
44934;BME280;30667;43.614;1.442;2022-09-01T10:05:44;99966.75;;;23.52;100.00
44934;BME280;30667;43.614;1.442;2022-09-01T10:11:03;99962.09;;;23.56;100.00
44934;BME280;30667;43.614;1.442;2022-09-01T10:13:30;99960.56;;;23.58;99.21
44934;BME280;30667;43.614;1.442;2022-09-01T10:16:00;99960.19;;;23.60;99.62
44934;BME280;30667;43.614;1.442;2022-09-01T10:18:31;99953.94;;;23.63;100.00
44934;BME280;30667;43.614;1.442;2022-09-01T10:21:02;99949.75;;;23.50;100.00
44934;BME280;30667;43.614;1.442;2022-09-01T10:23:32;99948.78;;;23.62;100.00
44934;BME280;30667;43.614;1.442;2022-09-01T10:26:07;99945.75;;;23.70;99.66
44934;BME280;30667;43.614;1.442;2022-09-01T10:28:40;99937.16;;;23.75;97.86
44934;BME280;30667;43.614;1.442;2022-09-01T10:31:08;99941.13;;;23.74;96.94
44934;BME280;30667;43.614;1.442;2022-09-01T10:33:34;99941.03;;;23.71;98.20
44934;BME280;30667;43.614;1.442;2022-09-01T10:36:00;99936.69;;;23.70;98.49
44934;BME280;30667;43.614;1.442;2022-09-01T10:38:27;99937.91;;;23.72;98.61
44934;BME280;30667;43.614;1.442;2022-09-01T10:40:55;99929.63;;;23.72;98.16
44934;BME280;30667;43.614;1.442;2022-09-01T10:43:47;99926.56;;;23.78;97.43
44934;BME280;30667;43.614;1.442;2022-09-01T10:48:52;99923.16;;;23.84;98.62
44934;BME280;30667;43.614;1.442;2022-09-01T10:53:47;99909.63;;;23.79;97.38
44934;BME280;30667;43.614;1.442;2022-09-01T11:04:09;99908.88;;;23.82;97.29
44934;BME280;30667;43.614;1.442;2022-09-01T11:14:21;99895.94;;;23.86;95.97
44934;BME280;30667;43.614;1.442;2022-09-01T11:19:36;99887.66;;;23.86;95.49
44934;BME280;30667;43.614;1.442;2022-09-01T11:27:12;99880.09;;;23.83;94.88
44934;BME280;30667;43.614;1.442;2022-09-01T11:30:06;99867.88;;;23.84;94.36
44934;BME280;30667;43.614;1.442;2022-09-01T11:32:36;99863.19;;;23.88;95.35
44934;BME280;30667;43.614;1.442;2022-09-01T11:35:05;99867.16;;;23.87;94.13
44934;BME280;30667;43.614;1.442;2022-09-01T11:37:39;99863.94;;;23.85;94.01
44934;BME280;30667;43.614;1.442;2022-09-01T11:40:05;99862.69;;;23.83;94.12
44934;BME280;30667;43.614;1.442;2022-09-01T11:42:42;99859.59;;;23.84;94.84
44934;BME280;30667;43.614;1.442;2022-09-01T11:47:43;99852.25;;;23.96;95.17
44934;BME280;30667;43.614;1.442;2022-09-01T11:50:29;99847.91;;;23.94;95.01
44934;BME280;30667;43.614;1.442;2022-09-01T11:52:59;99844.50;;;24.05;96.20
44934;BME280;30667;43.614;1.442;2022-09-01T11:57:58;99828.13;;;23.92;93.88
44934;BME280;30667;43.614;1.442;2022-09-01T12:00:35;99835.34;;;24.01;96.21
44934;BME280;30667;43.614;1.442;2022-09-01T12:03:26;99830.16;;;23.96;94.22
44934;BME280;30667;43.614;1.442;2022-09-01T12:05:58;99825.38;;;23.92;95.33
44934;BME280;30667;43.614;1.442;2022-09-01T12:08:27;99834.56;;;24.00;94.19
44934;BME280;30667;43.614;1.442;2022-09-01T12:11:17;99823.84;;;23.95;94.22
44934;BME280;30667;43.614;1.442;2022-09-01T12:13:55;99829.03;;;24.00;94.08
44934;BME280;30667;43.614;1.442;2022-09-01T12:16:21;99832.91;;;23.96;93.67
44934;BME280;30667;43.614;1.442;2022-09-01T12:18:51;99824.22;;;23.93;93.59
44934;BME280;30667;43.614;1.442;2022-09-01T12:21:23;99826.53;;;23.91;93.67
44934;BME280;30667;43.614;1.442;2022-09-01T12:23:49;99823.78;;;23.91;94.66
44934;BME280;30667;43.614;1.442;2022-09-01T12:26:19;99826.16;;;23.93;93.62
44934;BME280;30667;43.614;1.442;2022-09-01T12:28:46;99822.25;;;23.94;94.55
44934;BME280;30667;43.614;1.442;2022-09-01T12:31:17;99817.50;;;23.94;94.73
44934;BME280;30667;43.614;1.442;2022-09-01T12:33:44;99815.94;;;23.93;94.92
44934;BME280;30667;43.614;1.442;2022-09-01T12:38:49;99800.50;;;23.92;95.95
44934;BME280;30667;43.614;1.442;2022-09-01T12:41:34;99803.69;;;23.94;96.44
44934;BME280;30667;43.614;1.442;2022-09-01T12:44:25;99799.91;;;24.06;95.46
44934;BME280;30667;43.614;1.442;2022-09-01T12:46:51;99792.97;;;24.20;93.84
44934;BME280;30667;43.614;1.442;2022-09-01T12:49:44;99792.59;;;24.21;94.75
44934;BME280;30667;43.614;1.442;2022-09-01T12:57:38;99795.31;;;24.18;93.44
44934;BME280;30667;43.614;1.442;2022-09-01T13:07:46;99768.13;;;24.23;91.78
44934;BME280;30667;43.614;1.442;2022-09-01T13:10:12;99768.81;;;24.13;93.42
44934;BME280;30667;43.614;1.442;2022-09-01T13:12:40;99767.16;;;24.08;94.23
44934;BME280;30667;43.614;1.442;2022-09-01T13:15:07;99767.91;;;24.05;94.11
44934;BME280;30667;43.614;1.442;2022-09-01T13:17:33;99763.66;;;24.11;93.02
44934;BME280;30667;43.614;1.442;2022-09-01T13:19:58;99762.13;;;24.14;92.20
44934;BME280;30667;43.614;1.442;2022-09-01T13:22:24;99755.28;;;24.38;89.80
44934;BME280;30667;43.614;1.442;2022-09-01T13:24:49;99757.91;;;24.27;90.75
44934;BME280;30667;43.614;1.442;2022-09-01T13:27:15;99757.00;;;24.16;91.45
44934;BME280;30667;43.614;1.442;2022-09-01T13:29:40;99752.97;;;24.10;92.89
44934;BME280;30667;43.614;1.442;2022-09-01T13:32:06;99753.44;;;24.16;92.50
44934;BME280;30667;43.614;1.442;2022-09-01T13:34:33;99747.44;;;24.10;92.66
44934;BME280;30667;43.614;1.442;2022-09-01T13:36:59;99749.84;;;24.11;91.99
44934;BME280;30667;43.614;1.442;2022-09-01T13:39:24;99740.31;;;24.09;92.28
44934;BME280;30667;43.614;1.442;2022-09-01T13:41:50;99737.94;;;24.07;93.03
44934;BME280;30667;43.614;1.442;2022-09-01T13:44:16;99729.59;;;24.04;92.95
44934;BME280;30667;43.614;1.442;2022-09-01T13:46:42;99725.97;;;24.30;89.95
44934;BME280;30667;43.614;1.442;2022-09-01T13:49:08;99728.16;;;24.17;92.14
44934;BME280;30667;43.614;1.442;2022-09-01T13:51:34;99720.31;;;24.19;92.98
44934;BME280;30667;43.614;1.442;2022-09-01T13:54:01;99723.81;;;24.16;93.89
44934;BME280;30667;43.614;1.442;2022-09-01T13:56:26;99720.69;;;24.18;93.79
44934;BME280;30667;43.614;1.442;2022-09-01T13:58:52;99712.53;;;24.28;92.25
44934;BME280;30667;43.614;1.442;2022-09-01T14:01:17;99715.91;;;24.52;88.21
44934;BME280;30667;43.614;1.442;2022-09-01T14:03:43;99707.56;;;24.45;90.45
44934;BME280;30667;43.614;1.442;2022-09-01T14:06:08;99704.19;;;24.62;87.21
44934;BME280;30667;43.614;1.442;2022-09-01T14:08:34;99697.31;;;24.49;89.36
44934;BME280;30667;43.614;1.442;2022-09-01T14:11:00;99695.94;;;24.28;92.04